PATC/TNC METAR and TAF weather

Enter ICAO airport designator
Station Type Date Time Source
PATC METAR 2021/03/01 10:37 UTC NOAA

PATC 011037Z AUTO 04027KT 3/4SM BR VV003 M27/M30 A2951 RMK AO2 PK WND 04032/1014 SLP007


Station Type Date Time Source
PATC Decoded METAR 2021/03/01 10:37 UTC NOAA

Tin City Airways Facilities Sector, AK, United States (PATC) 65-34N 167-55W
Mar 01, 2021 - 05:37 AM EST / 2021.03.01 1037 UTC
Wind: from the NE (040 degrees) at 31 MPH (27 KT):0
Visibility: 3/4 mile(s):0
Sky conditions: obscured
Weather: mist
Temperature: -16 F (-27 C)
Windchill: -47 F (-44 C):2
Dew Point: -22 F (-30 C)
Relative Humidity: 75%
Pressure (altimeter): 29.51 in. Hg (999 hPa)
ob: PATC 011037Z AUTO 04027KT 3/4SM BR VV003 M27/M30 A2951 RMK AO2 PK WND 04032/1014 SLP007
cycle: 10

Station Type Date Time Source
PATC TAF 2016/08/27 04:12 UTC NOAA

TAF PATC 270400Z 2704/2810 18012G18KT 0400 FG OVC002 QNH3015INS TX10/2718Z TN06/2710Z

Example: see airport list